Time;durP1;ratioP1;P1;durP2;ratioP2;P2;SDS_P1;SDS_P2;PMS_P1;PMS_P2;Temp;Humidity;BMP_temperature;BMP_pressure;BME280_temperature;BME280_humidity;BME280_pressure;Samples;Min_cycle;Max_cycle;Signal;HPM_P1;HPM_P2
2023/03/19 00:01:58;;;;;;;4.00;3.15;;;;;;;-142.70;100.00;60390.16;4915081;29;20058;-79
2023/03/19 00:04:25;;;;;;;6.93;3.55;;;;;;;-142.70;100.00;60390.16;4906698;29;20043;-79
2023/03/19 00:06:51;;;;;;;5.38;3.92;;;;;;;-142.70;100.00;60390.16;4905444;29;20043;-78
2023/03/19 00:09:18;;;;;;;7.45;3.95;;;;;;;-142.70;100.00;60390.16;4904950;29;20425;-78
2023/03/19 00:11:43;;;;;;;5.32;4.07;;;;;;;-142.70;100.00;60390.16;4905996;29;20039;-78
2023/03/19 00:14:08;;;;;;;8.13;4.65;;;;;;;-142.70;100.00;60390.16;4921341;29;20458;-79
2023/03/19 00:16:35;;;;;;;6.43;4.60;;;;;;;-142.70;100.00;60390.16;4906172;29;20031;-78
2023/03/19 00:19:01;;;;;;;10.00;3.90;;;;;;;-142.70;100.00;60390.16;4903904;29;20036;-78
2023/03/19 00:21:27;;;;;;;9.93;4.18;;;;;;;-142.70;100.00;60390.16;4922609;29;20039;-78
2023/03/19 00:23:52;;;;;;;7.68;3.58;;;;;;;-142.70;100.00;60390.16;4904410;29;20031;-79
2023/03/19 00:26:18;;;;;;;6.32;3.35;;;;;;;-142.70;100.00;60390.16;4905993;29;20490;-79
2023/03/19 00:28:44;;;;;;;9.02;4.50;;;;;;;-142.70;100.00;60390.16;4905866;29;20469;-78
2023/03/19 00:31:15;;;;;;;7.03;3.80;;;;;;;-142.70;100.00;60390.16;4904188;29;20027;-78
2023/03/19 00:33:41;;;;;;;8.13;4.50;;;;;;;-142.70;100.00;60390.16;4905415;29;20535;-78
2023/03/19 00:36:08;;;;;;;6.75;3.88;;;;;;;-142.70;100.00;60390.16;4903936;29;20299;-78
2023/03/19 00:38:34;;;;;;;6.13;4.00;;;;;;;-142.70;100.00;60390.16;4889825;29;20754;-79
2023/03/19 00:41:00;;;;;;;5.05;3.92;;;;;;;-142.70;100.00;60390.16;4903634;29;20027;-78
2023/03/19 00:43:26;;;;;;;6.82;4.05;;;;;;;-142.70;100.00;60390.16;4886787;29;20036;-78
2023/03/19 00:45:52;;;;;;;6.20;3.60;;;;;;;-142.70;100.00;60390.16;4898734;29;20027;-78
2023/03/19 00:48:18;;;;;;;4.40;3.40;;;;;;;-142.70;100.00;60390.16;4921922;29;20031;-79
2023/03/19 00:50:43;;;;;;;5.90;3.80;;;;;;;-142.70;100.00;60390.16;4922601;29;20466;-76
2023/03/19 00:53:09;;;;;;;5.28;3.70;;;;;;;-142.70;100.00;60390.16;4889472;29;20138;-75
2023/03/19 00:55:34;;;;;;;5.57;3.45;;;;;;;-142.70;100.00;60390.16;4925961;29;20020;-76
2023/03/19 00:58:00;;;;;;;5.38;3.72;;;;;;;-142.70;100.00;60390.16;4907193;29;20027;-75
2023/03/19 01:00:26;;;;;;;7.35;4.05;;;;;;;-142.70;100.00;60390.16;4908438;29;20060;-78
2023/03/19 01:02:52;;;;;;;5.78;3.40;;;;;;;-142.70;100.00;60390.16;4907848;29;20624;-78
2023/03/19 01:05:17;;;;;;;5.20;3.58;;;;;;;-142.70;100.00;60390.16;4908432;29;20118;-78
2023/03/19 01:07:43;;;;;;;9.07;5.05;;;;;;;-142.70;100.00;60390.16;4892534;29;20035;-78
2023/03/19 01:10:09;;;;;;;12.00;6.88;;;;;;;-142.70;100.00;60390.16;4907311;29;20422;-78
2023/03/19 01:12:34;;;;;;;6.47;4.82;;;;;;;-142.70;100.00;60390.16;4908723;29;20419;-78
2023/03/19 01:15:00;;;;;;;5.35;4.15;;;;;;;-142.70;100.00;60390.16;4906722;29;20044;-78
2023/03/19 01:17:25;;;;;;;8.48;4.20;;;;;;;-142.70;100.00;60390.16;4925709;29;20624;-79
2023/03/19 01:19:51;;;;;;;7.43;6.30;;;;;;;-142.70;100.00;60390.16;4906663;29;20691;-79
2023/03/19 01:22:16;;;;;;;10.00;7.72;;;;;;;-142.70;100.00;60390.16;4908120;29;20035;-78
2023/03/19 01:24:42;;;;;;;7.07;4.35;;;;;;;-142.70;100.00;60390.16;4907884;29;20039;-78
2023/03/19 01:27:08;;;;;;;5.63;3.55;;;;;;;-142.70;100.00;60390.16;4891781;29;20058;-78
2023/03/19 01:29:33;;;;;;;7.38;4.03;;;;;;;-142.70;100.00;60390.16;4908083;29;20042;-78
2023/03/19 01:31:59;;;;;;;4.93;4.35;;;;;;;-142.70;100.00;60390.16;4924255;29;20413;-76
2023/03/19 01:34:24;;;;;;;7.68;4.40;;;;;;;-142.70;100.00;60390.16;4908126;29;20027;-76
2023/03/19 01:36:49;;;;;;;9.43;6.90;;;;;;;-142.70;100.00;60390.16;4891190;29;20062;-76
2023/03/19 01:39:15;;;;;;;23.02;14.30;;;;;;;-142.70;100.00;60390.16;4907985;29;20119;-76
2023/03/19 01:41:41;;;;;;;8.20;5.32;;;;;;;-142.70;100.00;60390.16;4906601;29;20067;-76
2023/03/19 01:44:32;;;;;;;9.02;5.43;;;;;;;-142.70;100.00;60390.16;4907970;29;20040;-76
2023/03/19 01:46:58;;;;;;;13.30;7.47;;;;;;;-142.70;100.00;60390.16;4896971;29;20498;-75
2023/03/19 01:49:24;;;;;;;11.02;7.47;;;;;;;-142.70;100.00;60390.16;4905745;29;20058;-76
2023/03/19 01:51:50;;;;;;;10.55;7.22;;;;;;;-142.70;100.00;60390.16;4892156;29;20174;-76
2023/03/19 01:54:19;;;;;;;10.45;5.57;;;;;;;-142.70;100.00;60390.16;4906738;29;20094;-76
2023/03/19 01:56:46;;;;;;;8.43;5.05;;;;;;;-142.70;100.00;60390.16;4908278;29;20066;-76
2023/03/19 01:59:14;;;;;;;6.82;5.43;;;;;;;-142.70;100.00;60390.16;4890788;29;20020;-76
2023/03/19 02:01:46;;;;;;;9.25;5.45;;;;;;;-142.70;100.00;60390.16;4924705;29;20090;-76
2023/03/19 02:04:12;;;;;;;9.65;5.30;;;;;;;-142.70;100.00;60390.16;4907450;29;20028;-76
2023/03/19 02:06:39;;;;;;;6.63;5.20;;;;;;;-142.70;100.00;60390.16;4890934;29;20521;-77
2023/03/19 02:09:06;;;;;;;6.75;4.95;;;;;;;-142.70;100.00;60390.16;4907496;29;20553;-76
2023/03/19 02:11:32;;;;;;;10.05;6.55;;;;;;;-142.70;100.00;60390.16;4906171;29;20024;-77
2023/03/19 02:13:57;;;;;;;9.13;6.53;;;;;;;-142.70;100.00;60390.16;4908147;29;20429;-76
2023/03/19 02:16:22;;;;;;;6.68;5.22;;;;;;;-142.70;100.00;60390.16;4905978;29;20031;-79
2023/03/19 02:18:48;;;;;;;8.63;5.88;;;;;;;-142.70;100.00;60390.16;4891773;29;20032;-79
2023/03/19 02:21:16;;;;;;;8.75;5.53;;;;;;;-142.70;100.00;60390.16;4906875;29;20118;-79
2023/03/19 02:24:05;;;;;;;7.78;5.25;;;;;;;-142.70;100.00;60390.16;4907401;29;20531;-78
2023/03/19 02:26:31;;;;;;;9.60;6.55;;;;;;;-142.70;100.00;60390.16;4924496;29;20453;-79
2023/03/19 02:28:56;;;;;;;8.63;6.07;;;;;;;-142.70;100.00;60390.16;4905585;29;20051;-79
2023/03/19 02:31:22;;;;;;;8.30;5.38;;;;;;;-142.70;100.00;60390.16;4907039;29;20032;-79
2023/03/19 02:34:03;;;;;;;7.05;5.28;;;;;;;-142.70;100.00;60390.16;4889863;29;20429;-76
2023/03/19 02:36:33;;;;;;;6.95;5.13;;;;;;;-142.70;100.00;60390.16;4906584;29;20028;-77
2023/03/19 02:39:01;;;;;;;6.32;4.45;;;;;;;-142.70;100.00;60390.16;4907999;29;20039;-76
2023/03/19 02:41:28;;;;;;;7.90;5.05;;;;;;;-142.70;100.00;60390.16;4889817;29;20705;-76
2023/03/19 02:43:54;;;;;;;8.75;4.93;;;;;;;-142.70;100.00;60390.16;4907433;29;20035;-76
2023/03/19 02:46:20;;;;;;;8.13;5.38;;;;;;;-142.70;100.00;60390.16;4905551;29;20110;-76
2023/03/19 02:48:45;;;;;;;9.90;5.53;;;;;;;-142.70;100.00;60390.16;4924085;29;20032;-76
2023/03/19 02:51:12;;;;;;;7.13;5.30;;;;;;;-142.70;100.00;60390.16;4905737;29;20051;-76
2023/03/19 02:53:38;;;;;;;7.60;5.43;;;;;;;-142.70;100.00;60390.16;4906720;29;20042;-77
2023/03/19 02:56:03;;;;;;;7.60;5.75;;;;;;;-142.70;100.00;60390.16;4923301;29;20040;-77
2023/03/19 02:58:29;;;;;;;10.52;7.70;;;;;;;-142.70;100.00;60390.16;4905911;29;20055;-76
2023/03/19 03:00:54;;;;;;;9.27;7.00;;;;;;;-142.70;100.00;60390.16;4906534;29;20047;-76
2023/03/19 03:03:20;;;;;;;10.90;8.07;;;;;;;-142.70;100.00;60390.16;4905533;29;20082;-77
2023/03/19 03:05:45;;;;;;;10.50;9.05;;;;;;;-142.70;100.00;60390.16;4923868;29;20031;-76
2023/03/19 03:08:11;;;;;;;12.85;8.88;;;;;;;-142.70;100.00;60390.16;4889941;29;20494;-77
2023/03/19 03:10:36;;;;;;;10.02;7.38;;;;;;;-142.70;100.00;60390.16;4906764;29;20382;-77
2023/03/19 03:13:02;;;;;;;10.32;7.65;;;;;;;-142.70;100.00;60390.16;4923078;29;20434;-76
2023/03/19 03:15:28;;;;;;;10.43;7.15;;;;;;;-142.70;100.00;60390.16;4905902;29;20027;-76
2023/03/19 03:17:55;;;;;;;11.48;7.20;;;;;;;-142.70;100.00;60390.16;4923908;29;20091;-77
2023/03/19 03:20:21;;;;;;;11.43;7.47;;;;;;;-142.70;100.00;60390.16;4906071;29;20028;-77
2023/03/19 03:22:47;;;;;;;13.70;8.75;;;;;;;-142.70;100.00;60390.16;4890922;29;20032;-78
2023/03/19 03:25:13;;;;;;;16.42;9.20;;;;;;;-142.70;100.00;60390.16;4905882;29;20031;-77
2023/03/19 03:27:38;;;;;;;13.98;8.25;;;;;;;-142.70;100.00;60390.16;4923909;29;20032;-77
2023/03/19 03:30:06;;;;;;;15.05;8.68;;;;;;;-142.70;100.00;60390.16;4905702;29;20032;-78
2023/03/19 03:32:32;;;;;;;9.57;7.43;;;;;;;-142.70;100.00;60390.16;4906782;29;20083;-77
2023/03/19 03:34:58;;;;;;;10.13;7.95;;;;;;;-142.70;100.00;60390.16;4923632;29;20032;-78
2023/03/19 03:37:23;;;;;;;10.80;8.68;;;;;;;-142.70;100.00;60390.16;4923163;29;20578;-77
2023/03/19 03:39:48;;;;;;;12.43;8.48;;;;;;;-142.70;100.00;60390.16;4906751;29;20030;-77
2023/03/19 03:42:14;;;;;;;11.02;8.77;;;;;;;-142.70;100.00;60390.16;4905767;29;20039;-77
2023/03/19 03:44:39;;;;;;;13.88;10.20;;;;;;;-142.70;100.00;60390.16;4923583;29;20103;-77
2023/03/19 03:47:05;;;;;;;10.25;7.53;;;;;;;-142.70;100.00;60390.16;4921991;29;20098;-77
2023/03/19 03:49:31;;;;;;;8.85;6.57;;;;;;;-142.70;100.00;60390.16;4907531;29;20040;-78
2023/03/19 03:51:56;;;;;;;7.03;5.78;;;;;;;-142.70;100.00;60390.16;4905557;29;20095;-78
2023/03/19 03:54:22;;;;;;;9.32;6.53;;;;;;;-142.70;100.00;60390.16;4907069;29;20085;-77
2023/03/19 03:56:49;;;;;;;13.20;6.55;;;;;;;-142.70;100.00;60390.16;4891025;29;20039;-77
2023/03/19 03:59:15;;;;;;;12.77;6.28;;;;;;;-142.70;100.00;60390.16;4890379;29;20030;-77
2023/03/19 04:01:40;;;;;;;13.38;7.43;;;;;;;-142.70;100.00;60390.16;4890621;29;20048;-77
2023/03/19 04:04:06;;;;;;;9.43;6.72;;;;;;;-142.70;100.00;60390.16;4923245;29;20095;-80
2023/03/19 04:06:31;;;;;;;8.90;7.10;;;;;;;-142.70;100.00;60390.16;4907714;29;20027;-78
2023/03/19 04:08:56;;;;;;;10.32;8.63;;;;;;;-142.70;100.00;60390.16;4906012;29;20035;-77
2023/03/19 04:11:22;;;;;;;14.75;10.02;;;;;;;-142.70;100.00;60390.16;4892030;29;20070;-79
2023/03/19 04:13:47;;;;;;;12.07;7.97;;;;;;;-142.70;100.00;60390.16;4923037;29;20024;-77
2023/03/19 04:16:14;;;;;;;9.68;7.00;;;;;;;-142.70;100.00;60390.16;4923703;29;20189;-77
2023/03/19 04:18:40;;;;;;;8.75;6.28;;;;;;;-142.70;100.00;60390.16;4907317;29;20036;-78
2023/03/19 04:21:06;;;;;;;10.13;6.10;;;;;;;-142.70;100.00;60390.16;4889316;29;20031;-77
2023/03/19 04:23:32;;;;;;;6.90;5.22;;;;;;;-142.70;100.00;60390.16;4907040;29;20035;-77
2023/03/19 04:26:02;;;;;;;6.43;5.43;;;;;;;-142.70;100.00;60390.16;4905489;29;20436;-78
2023/03/19 04:28:28;;;;;;;7.80;5.90;;;;;;;-142.70;100.00;60390.16;4894517;29;20501;-78
2023/03/19 04:31:06;;;;;;;10.23;6.05;;;;;;;-142.70;100.00;60390.16;4909229;29;20070;-78
2023/03/19 04:33:32;;;;;;;12.15;6.10;;;;;;;-142.70;100.00;60390.16;4910808;29;20112;-78
2023/03/19 04:35:58;;;;;;;9.20;6.88;;;;;;;-142.70;100.00;60390.16;4911137;29;20031;-78
2023/03/19 04:38:27;;;;;;;8.02;6.22;;;;;;;-142.70;100.00;60390.16;4927503;29;20023;-78
2023/03/19 04:40:53;;;;;;;9.18;6.55;;;;;;;-142.70;100.00;60390.16;4895559;29;20035;-78
2023/03/19 04:43:21;;;;;;;10.38;7.10;;;;;;;-142.70;100.00;60390.16;4909558;29;20035;-77
2023/03/19 04:45:46;;;;;;;10.70;7.68;;;;;;;-142.70;100.00;60390.16;4927823;29;20035;-77
2023/03/19 04:48:11;;;;;;;19.17;11.35;;;;;;;-142.70;100.00;60390.16;4909291;29;20417;-78
2023/03/19 04:50:38;;;;;;;91.07;43.17;;;;;;;-142.70;100.00;60390.16;4928281;29;20031;-78
2023/03/19 04:53:03;;;;;;;96.13;43.20;;;;;;;-142.70;100.00;60390.16;4910425;29;20063;-77
2023/03/19 04:55:29;;;;;;;68.32;31.35;;;;;;;-142.70;100.00;60390.16;4909305;29;20062;-78
2023/03/19 04:57:54;;;;;;;58.08;27.67;;;;;;;-142.70;100.00;60390.16;4911645;29;20534;-78
2023/03/19 05:00:20;;;;;;;38.22;22.50;;;;;;;-142.70;100.00;60390.16;4927815;29;20043;-78
2023/03/19 05:02:46;;;;;;;31.60;18.25;;;;;;;-142.70;100.00;60390.16;4930138;29;21026;-78
2023/03/19 05:05:12;;;;;;;16.77;10.48;;;;;;;-142.70;100.00;60390.16;4911629;29;20032;-78
2023/03/19 05:07:38;;;;;;;9.18;7.45;;;;;;;-142.70;100.00;60390.16;4915095;29;20050;-78
2023/03/19 05:10:04;;;;;;;13.45;7.95;;;;;;;-142.70;100.00;60390.16;4913069;29;20063;-78
2023/03/19 05:12:30;;;;;;;11.75;7.05;;;;;;;-142.70;100.00;60390.16;4911875;29;20174;-78
2023/03/19 05:14:56;;;;;;;9.80;6.60;;;;;;;-142.70;100.00;60390.16;4910839;29;20189;-77
2023/03/19 05:17:22;;;;;;;7.68;6.40;;;;;;;-142.70;100.00;60390.16;4909026;29;20058;-80
2023/03/19 05:19:47;;;;;;;41.22;17.65;;;;;;;-142.70;100.00;60390.16;4895478;29;20038;-80
2023/03/19 05:22:12;;;;;;;37.13;15.00;;;;;;;-142.70;100.00;60390.16;4927309;29;20162;-80
2023/03/19 05:24:38;;;;;;;13.23;8.98;;;;;;;-142.70;100.00;60390.16;4911943;29;20024;-80
2023/03/19 05:27:03;;;;;;;10.90;7.15;;;;;;;-142.70;100.00;60390.16;4926604;29;20090;-79
2023/03/19 05:29:29;;;;;;;128.95;14.45;;;;;;;-142.70;100.00;60390.16;4913101;29;20802;-75
2023/03/19 05:31:54;;;;;;;11.00;6.57;;;;;;;-142.70;100.00;60390.16;4907370;29;20119;-77
2023/03/19 05:34:20;;;;;;;12.50;9.02;;;;;;;-142.70;100.00;60390.16;4908490;29;20126;-80
2023/03/19 05:36:45;;;;;;;8.63;6.70;;;;;;;-142.70;100.00;60390.16;4916483;29;20509;-78
2023/03/19 05:39:11;;;;;;;10.68;7.40;;;;;;;-142.70;100.00;60390.16;4902118;29;20044;-81
2023/03/19 05:41:36;;;;;;;13.15;10.20;;;;;;;-142.70;100.00;60390.16;4936161;29;20087;-83
2023/03/19 05:44:02;;;;;;;8.98;7.40;;;;;;;-142.70;100.00;60390.16;4981228;29;20043;-82
2023/03/19 05:46:28;;;;;;;7.50;5.57;;;;;;;-142.70;100.00;60390.16;4947477;29;20031;-80
2023/03/19 05:48:53;;;;;;;6.80;5.53;;;;;;;-142.70;100.00;60390.16;4927219;29;20024;-81
2023/03/19 05:51:18;;;;;;;6.45;5.22;;;;;;;-142.70;100.00;60390.16;4929089;29;20028;-80
2023/03/19 05:53:44;;;;;;;6.45;5.70;;;;;;;-142.70;100.00;60390.16;4915640;29;20038;-79
2023/03/19 05:56:10;;;;;;;9.23;7.10;;;;;;;-142.70;100.00;60390.16;5227066;23;20490;-78
2023/03/19 05:58:36;;;;;;;8.65;7.70;;;;;;;-142.70;100.00;60390.16;4888991;29;20041;-80
2023/03/19 06:01:02;;;;;;;8.45;6.65;;;;;;;-142.70;100.00;60390.16;4868814;29;20041;-83
2023/03/19 06:03:27;;;;;;;8.20;6.80;;;;;;;-142.70;100.00;60390.16;4849432;29;20037;-79
2023/03/19 06:05:53;;;;;;;7.32;6.63;;;;;;;-142.70;100.00;60390.16;4881752;29;20040;-79
2023/03/19 06:08:18;;;;;;;8.15;7.47;;;;;;;-142.70;100.00;60390.16;4880211;29;20040;-78
2023/03/19 06:10:45;;;;;;;7.45;6.82;;;;;;;-142.70;100.00;60390.16;4881682;29;20041;-78
2023/03/19 06:13:11;;;;;;;8.43;7.38;;;;;;;-142.70;100.00;60390.16;4865348;29;20428;-77
2023/03/19 06:15:36;;;;;;;7.38;6.78;;;;;;;-142.70;100.00;60390.16;4881085;29;20593;-77
2023/03/19 06:18:02;;;;;;;10.18;6.90;;;;;;;-142.70;100.00;60390.16;4867676;29;20487;-77
2023/03/19 06:20:28;;;;;;;7.28;6.63;;;;;;;-142.70;100.00;60390.16;4864222;29;20037;-77
2023/03/19 06:22:53;;;;;;;6.53;6.03;;;;;;;-142.70;100.00;60390.16;4881902;29;20064;-77
2023/03/19 06:25:19;;;;;;;7.05;6.20;;;;;;;-142.70;100.00;60390.16;4879300;29;20140;-77
2023/03/19 06:27:45;;;;;;;6.90;6.38;;;;;;;-142.70;100.00;60390.16;4866186;29;20506;-77
2023/03/19 06:30:12;;;;;;;8.15;7.45;;;;;;;-142.70;100.00;60390.16;4864681;29;20316;-77
2023/03/19 06:32:38;;;;;;;8.27;7.55;;;;;;;-142.70;100.00;60390.16;4865712;29;20119;-77
2023/03/19 06:35:04;;;;;;;8.05;7.35;;;;;;;-142.70;100.00;60390.16;4880760;29;20104;-77
2023/03/19 06:37:29;;;;;;;6.05;5.45;;;;;;;-142.70;100.00;60390.16;4864609;29;20128;-77
2023/03/19 06:39:55;;;;;;;6.90;5.75;;;;;;;-142.70;100.00;60390.16;4867333;29;20563;-76
2023/03/19 06:42:21;;;;;;;6.68;6.15;;;;;;;-142.70;100.00;60390.16;4863757;29;20033;-76
2023/03/19 06:44:47;;;;;;;8.65;7.82;;;;;;;-142.70;100.00;60390.16;4865778;29;20419;-76
2023/03/19 06:47:13;;;;;;;7.80;7.20;;;;;;;-142.70;100.00;60390.16;4864291;29;20033;-75
2023/03/19 06:49:38;;;;;;;7.40;6.20;;;;;;;-142.70;100.00;60390.16;4865348;29;20036;-76
2023/03/19 06:52:04;;;;;;;7.57;6.88;;;;;;;-142.70;100.00;60390.16;4864280;29;20071;-76
2023/03/19 06:54:30;;;;;;;8.52;7.75;;;;;;;-142.70;100.00;60390.16;4864472;29;20120;-76
2023/03/19 06:56:56;;;;;;;9.10;7.63;;;;;;;-142.70;100.00;60390.16;4849971;29;20857;-76
2023/03/19 06:59:21;;;;;;;8.23;6.82;;;;;;;-142.70;100.00;60390.16;4879208;29;20031;-77
2023/03/19 07:01:46;;;;;;;7.70;6.80;;;;;;;-142.70;100.00;60390.16;4865485;29;20041;-76
2023/03/19 07:04:12;;;;;;;7.97;7.20;;;;;;;-142.70;100.00;60390.16;4865298;29;20063;-76
2023/03/19 07:06:37;;;;;;;7.80;7.00;;;;;;;-142.70;100.00;60390.16;4880635;29;20124;-76
2023/03/19 07:09:03;;;;;;;8.73;6.35;;;;;;;-142.70;100.00;60390.16;4865149;29;20310;-76
2023/03/19 07:11:28;;;;;;;7.55;6.88;;;;;;;-142.70;100.00;60390.16;4880511;29;20035;-76
2023/03/19 07:13:55;;;;;;;8.05;7.25;;;;;;;-142.70;100.00;60390.16;4864378;29;20068;-76
2023/03/19 07:16:21;;;;;;;7.50;6.90;;;;;;;-142.70;100.00;60390.16;4864091;29;20457;-76
2023/03/19 07:18:46;;;;;;;7.38;6.68;;;;;;;-142.70;100.00;60390.16;4880720;29;20040;-76
2023/03/19 07:21:11;;;;;;;6.95;6.35;;;;;;;-142.70;100.00;60390.16;4878885;29;20450;-76
2023/03/19 07:23:37;;;;;;;6.25;5.75;;;;;;;-142.70;100.00;60390.16;4866623;29;20025;-75
2023/03/19 07:26:02;;;;;;;5.63;5.13;;;;;;;-142.70;100.00;60390.16;4863198;29;20636;-76
2023/03/19 07:28:28;;;;;;;6.82;6.22;;;;;;;-142.70;100.00;60390.16;4865038;29;20096;-76
2023/03/19 07:30:53;;;;;;;6.90;6.30;;;;;;;-142.70;100.00;60390.16;4863655;29;20021;-76
2023/03/19 07:33:20;;;;;;;6.72;6.00;;;;;;;-142.70;100.00;60390.16;4865877;29;20033;-75
2023/03/19 07:35:46;;;;;;;6.15;5.40;;;;;;;-142.70;100.00;60390.16;4864520;29;20037;-76
2023/03/19 07:38:12;;;;;;;5.32;4.93;;;;;;;-142.70;100.00;60390.16;4850753;29;20060;-76
2023/03/19 07:40:37;;;;;;;4.90;4.40;;;;;;;-142.70;100.00;60390.16;4864440;29;20040;-76
2023/03/19 07:43:03;;;;;;;3.75;3.45;;;;;;;-142.70;100.00;60390.16;4878574;29;20209;-76
2023/03/19 07:45:28;;;;;;;5.07;4.43;;;;;;;-142.70;100.00;60390.16;4866353;29;20430;-75
2023/03/19 07:47:54;;;;;;;4.65;4.20;;;;;;;-142.70;100.00;60390.16;4864488;29;20048;-75
2023/03/19 07:50:19;;;;;;;4.45;4.05;;;;;;;-142.70;100.00;60390.16;4864645;29;20464;-76
2023/03/19 07:52:46;;;;;;;4.93;4.53;;;;;;;-142.70;100.00;60390.16;4879222;29;20093;-76
2023/03/19 07:55:12;;;;;;;4.47;4.07;;;;;;;-142.70;100.00;60390.16;4863767;29;20037;-76
2023/03/19 07:57:38;;;;;;;7.63;5.20;;;;;;;-142.70;100.00;60390.16;4864689;29;20045;-75
2023/03/19 08:00:04;;;;;;;7.22;6.13;;;;;;;-142.70;100.00;60390.16;4878371;29;20609;-75
2023/03/19 08:02:30;;;;;;;6.32;5.75;;;;;;;-142.70;100.00;60390.16;4864536;29;20049;-75
2023/03/19 08:04:55;;;;;;;5.78;5.22;;;;;;;-142.70;100.00;60390.16;4844905;29;20105;-75
2023/03/19 08:07:21;;;;;;;6.82;5.85;;;;;;;-142.70;100.00;60390.16;4864858;29;20033;-77
2023/03/19 08:09:47;;;;;;;5.85;4.57;;;;;;;-142.70;100.00;60390.16;4864973;29;20096;-75
2023/03/19 08:12:12;;;;;;;7.32;4.43;;;;;;;-142.70;100.00;60390.16;4880071;29;20029;-75
2023/03/19 08:14:38;;;;;;;4.53;4.13;;;;;;;-142.70;100.00;60390.16;4864000;29;20033;-75
2023/03/19 08:17:05;;;;;;;5.35;4.40;;;;;;;-142.70;100.00;60390.16;4848031;29;20473;-75
2023/03/19 08:19:31;;;;;;;3.97;3.63;;;;;;;-142.70;100.00;60390.16;4867521;29;20037;-77
2023/03/19 08:21:56;;;;;;;6.82;4.57;;;;;;;-142.70;100.00;60390.16;4878315;29;20424;-77
2023/03/19 08:24:22;;;;;;;5.35;4.32;;;;;;;-142.70;100.00;60390.16;4880100;29;20600;-75
2023/03/19 08:26:47;;;;;;;4.88;4.45;;;;;;;-142.70;100.00;60390.16;4862693;29;20479;-76
2023/03/19 08:29:13;;;;;;;8.55;5.32;;;;;;;-142.70;100.00;60390.16;4864387;29;20037;-75
2023/03/19 08:31:40;;;;;;;6.03;5.43;;;;;;;-142.70;100.00;60390.16;4863647;29;20484;-77
2023/03/19 08:34:09;;;;;;;5.63;4.93;;;;;;;-142.70;100.00;60390.16;4879242;29;20037;-75
2023/03/19 08:36:34;;;;;;;5.55;5.15;;;;;;;-142.70;100.00;60390.16;4864948;29;20480;-75
2023/03/19 08:39:00;;;;;;;6.03;5.43;;;;;;;-142.70;100.00;60390.16;4863972;29;20041;-75
2023/03/19 08:41:25;;;;;;;5.75;5.15;;;;;;;-142.70;100.00;60390.16;4879670;29;20101;-75
2023/03/19 08:43:51;;;;;;;7.88;5.95;;;;;;;-142.70;100.00;60390.16;4877661;29;20029;-75
2023/03/19 08:46:17;;;;;;;7.43;6.28;;;;;;;-142.70;100.00;60390.16;4879537;29;20025;-75
2023/03/19 08:48:43;;;;;;;6.97;6.32;;;;;;;-142.70;100.00;60390.16;4878529;29;20044;-75
2023/03/19 08:51:09;;;;;;;6.90;6.18;;;;;;;-142.70;100.00;60390.16;4864905;29;20033;-75
2023/03/19 08:53:34;;;;;;;7.50;5.25;;;;;;;-142.70;100.00;60390.16;4865454;29;20596;-75
2023/03/19 08:56:02;;;;;;;5.65;5.15;;;;;;;-142.70;100.00;60390.16;4863895;29;20045;-75
2023/03/19 08:58:28;;;;;;;6.35;5.82;;;;;;;-142.70;100.00;60390.16;4865287;29;20299;-75
2023/03/19 09:01:01;;;;;;;6.78;6.07;;;;;;;-142.70;100.00;60390.16;4877719;29;20145;-76
2023/03/19 09:03:27;;;;;;;5.57;4.97;;;;;;;-142.70;100.00;60390.16;4864379;29;20041;-75
2023/03/19 09:05:57;;;;;;;6.38;5.03;;;;;;;-142.70;100.00;60390.16;4862471;29;20743;-75
2023/03/19 09:08:22;;;;;;;;;;;;;;;-142.70;100.00;60390.16;4864170;29;20033;-75
2023/03/19 09:10:48;;;;;;;8.10;5.68;;;;;;;-142.70;100.00;60390.16;4864644;29;19975;-75
2023/03/19 09:13:13;;;;;;;5.57;5.07;;;;;;;-142.70;100.00;60390.16;4864480;29;20029;-75
2023/03/19 09:15:39;;;;;;;7.15;5.50;;;;;;;-142.70;100.00;60390.16;4868207;29;20040;-75
2023/03/19 09:18:04;;;;;;;6.07;5.30;;;;;;;-142.70;100.00;60390.16;4881202;29;20041;-76
2023/03/19 09:20:30;;;;;;;5.82;5.20;;;;;;;-142.70;100.00;60390.16;4882597;29;20025;-75
2023/03/19 09:22:55;;;;;;;11.55;5.13;;;;;;;-142.70;100.00;60390.16;4866836;29;20039;-76
2023/03/19 09:25:20;;;;;;;6.30;5.70;;;;;;;-142.70;100.00;60390.16;4868352;29;20048;-75
2023/03/19 09:27:46;;;;;;;7.40;6.10;;;;;;;-142.70;100.00;60390.16;4881591;29;20368;-75
2023/03/19 09:30:12;;;;;;;10.20;7.07;;;;;;;-142.70;100.00;60390.16;4867843;29;20031;-76
2023/03/19 09:32:37;;;;;;;7.78;6.97;;;;;;;-142.70;100.00;60390.16;4851202;29;20406;-75
2023/03/19 09:35:03;;;;;;;7.13;6.53;;;;;;;-142.70;100.00;60390.16;4864902;29;20028;-76
2023/03/19 09:37:29;;;;;;;6.63;6.03;;;;;;;-142.70;100.00;60390.16;4868570;29;20033;-75
2023/03/19 09:39:54;;;;;;;7.82;7.07;;;;;;;-142.70;100.00;60390.16;4864841;29;20360;-75
2023/03/19 09:42:39;;;;;;;7.47;6.72;;;;;;;-142.70;100.00;60390.16;4882224;29;20109;-75
2023/03/19 09:45:11;;;;;;;8.32;6.93;;;;;;;-142.70;100.00;60390.16;4853573;29;20036;-75
2023/03/19 09:47:38;;;;;;;7.13;6.20;;;;;;;-142.70;100.00;60390.16;4865934;29;20044;-75
2023/03/19 09:50:10;;;;;;;6.93;6.32;;;;;;;-142.70;100.00;60390.16;4866486;29;20040;-76
2023/03/19 09:53:03;;;;;;;7.60;5.97;;;;;;;-142.70;100.00;60390.16;4880280;29;20091;-75
2023/03/19 09:55:49;;;;;;;6.32;5.72;;;;;;;-142.70;100.00;60390.16;4867294;29;20059;-76
2023/03/19 09:58:18;;;;;;;6.03;5.53;;;;;;;-142.70;100.00;60390.16;4863413;29;20033;-76
2023/03/19 10:00:48;;;;;;;5.90;5.30;;;;;;;-142.70;100.00;60390.16;4866639;29;20095;-76
2023/03/19 10:03:33;;;;;;;5.55;5.05;;;;;;;-142.70;100.00;60390.16;4867413;29;20041;-75
2023/03/19 10:06:39;;;;;;;6.07;5.47;;;;;;;-142.70;100.00;60390.16;4856415;29;21097;-75
2023/03/19 10:09:24;;;;;;;6.03;5.53;;;;;;;-142.70;100.00;60390.16;4804456;29;20034;-76
2023/03/19 10:12:00;;;;;;;5.30;4.80;;;;;;;-142.70;100.00;60390.16;4793062;29;20047;-75
2023/03/19 10:15:01;;;;;;;5.88;5.22;;;;;;;-142.70;100.00;60390.16;4835202;29;20045;-74
2023/03/19 10:17:31;;;;;;;5.25;4.60;;;;;;;-142.70;100.00;60390.16;4861145;29;20089;-75
2023/03/19 10:20:20;;;;;;;5.22;4.80;;;;;;;-142.70;100.00;60390.16;4866843;29;20088;-76
2023/03/19 10:23:00;;;;;;;5.53;4.85;;;;;;;-142.70;100.00;60390.16;4879264;29;20045;-76
2023/03/19 10:25:37;;;;;;;5.07;4.60;;;;;;;-142.70;100.00;60390.16;4865870;29;20045;-75
2023/03/19 10:28:14;;;;;;;4.25;3.85;;;;;;;-142.70;100.00;60390.16;4848075;29;20170;-75
2023/03/19 10:30:42;;;;;;;4.88;4.40;;;;;;;-142.70;100.00;60390.16;4866223;29;20037;-75
2023/03/19 10:33:20;;;;;;;5.20;4.70;;;;;;;-142.70;100.00;60390.16;4868214;29;20496;-75
2023/03/19 10:35:48;;;;;;;7.40;4.67;;;;;;;-142.70;100.00;60390.16;4865520;29;20033;-75
2023/03/19 10:38:23;;;;;;;5.50;4.38;;;;;;;-142.70;100.00;60390.16;4851625;29;20800;-75
2023/03/19 10:41:16;;;;;;;5.38;4.88;;;;;;;-142.70;100.00;60390.16;4865626;29;20033;-75
2023/03/19 10:43:42;;;;;;;5.80;4.72;;;;;;;-142.70;100.00;60390.16;4868385;29;20036;-75
2023/03/19 10:46:13;;;;;;;5.28;4.40;;;;;;;-142.70;100.00;60390.16;4862160;29;20568;-75
2023/03/19 10:48:44;;;;;;;4.43;4.00;;;;;;;-142.70;100.00;60390.16;4865621;29;20033;-75
2023/03/19 10:51:14;;;;;;;5.47;4.40;;;;;;;-142.70;100.00;60390.16;4865967;29;20073;-75
2023/03/19 10:53:40;;;;;;;7.80;4.15;;;;;;;-142.70;100.00;60390.16;4849666;29;20037;-74
2023/03/19 10:56:26;;;;;;;5.25;4.72;;;;;;;-142.70;100.00;60390.16;4866957;29;20057;-75
2023/03/19 10:59:01;;;;;;;5.50;4.38;;;;;;;-142.70;100.00;60390.16;4853083;29;20052;-75
2023/03/19 11:01:39;;;;;;;5.35;4.68;;;;;;;-142.70;100.00;60390.16;4853939;29;20041;-75
2023/03/19 11:04:15;;;;;;;7.07;5.05;;;;;;;-142.70;100.00;60390.16;4866655;29;20519;-75
2023/03/19 11:06:42;;;;;;;4.97;4.57;;;;;;;-142.70;100.00;60390.16;4849604;29;20036;-75
2023/03/19 11:09:07;;;;;;;5.15;4.40;;;;;;;-142.70;100.00;60390.16;4881822;29;20044;-75